Time,TemperatureF,DewpointF,PressureIn,WindDirection,WindDirectionDegrees,WindSpeedMPH,WindSpeedGustMPH,Humidity,HourlyPrecipIn,Conditions,Clouds,dailyrainin,SolarRadiationWatts/m^2,SoftwareType,DateUTC
2013-04-22 00:00:00,21.0,20.0,30.27,NNW,339,8.0,-999.0,98,-99.99,,,-99.99,0.000000,,2013-04-22 06:00:00,
2013-04-22 00:52:00,21.0,20.0,30.27,NNW,339,8.0,-999.0,98,-99.99,,,-99.99,0.000000,,2013-04-22 06:52:00,
2013-04-22 02:00:00,20.0,19.0,30.29,NW,323,6.0,-999.0,98,-99.99,,,-99.99,0.000000,,2013-04-22 08:00:00,
2013-04-22 02:52:00,20.0,19.0,30.29,NW,323,6.0,-999.0,98,-99.99,,,-99.99,0.000000,,2013-04-22 08:52:00,
2013-04-22 03:00:00,21.0,21.0,30.29,NW,317,5.0,-999.0,99,-99.99,,,-99.99,0.000000,,2013-04-22 09:00:00,
2013-04-22 03:52:00,21.0,21.0,30.29,NW,317,5.0,-999.0,99,-99.99,,,-99.99,0.000000,,2013-04-22 09:52:00,
2013-04-22 04:00:00,20.0,20.0,30.30,NNW,330,7.0,-999.0,99,-99.99,,,-99.99,0.000000,,2013-04-22 10:00:00,
2013-04-22 04:52:00,20.0,20.0,30.30,NNW,330,7.0,-999.0,99,-99.99,,,-99.99,0.000000,,2013-04-22 10:52:00,
2013-04-22 05:00:00,20.0,19.0,30.31,North,354,8.0,-999.0,99,-99.99,,,-99.99,0.000000,,2013-04-22 11:00:00,
2013-04-22 05:52:00,20.0,19.0,30.31,North,354,8.0,-999.0,99,-99.99,,,-99.99,0.000000,,2013-04-22 11:52:00,
2013-04-22 06:00:00,18.0,18.0,30.34,North,353,7.0,-999.0,99,-99.99,,,-99.99,0.010000,,2013-04-22 12:00:00,
2013-04-22 06:52:00,18.0,18.0,30.34,North,353,7.0,-999.0,99,-99.99,,,-99.99,0.010000,,2013-04-22 12:52:00,
2013-04-22 07:00:00,16.0,16.0,30.36,NNW,335,5.0,-999.0,98,-99.99,,,-99.99,18.030001,,2013-04-22 13:00:00,
2013-04-22 07:53:00,16.0,16.0,30.36,NNW,335,5.0,-999.0,98,-99.99,,,-99.99,18.030001,,2013-04-22 13:53:00,
2013-04-22 08:00:00,15.0,14.0,30.38,West,263,3.0,-999.0,95,-99.99,,,-99.99,129.699997,,2013-04-22 14:00:00,
2013-04-22 08:52:00,15.0,14.0,30.38,West,263,3.0,-999.0,95,-99.99,,,-99.99,129.699997,,2013-04-22 14:52:00,
2013-04-22 09:00:00,20.0,19.0,30.40,WNW,289,5.0,-999.0,95,-99.99,,,-99.99,324.600006,,2013-04-22 15:00:00,
2013-04-22 09:53:00,20.0,19.0,30.40,WNW,289,5.0,-999.0,95,-99.99,,,-99.99,324.600006,,2013-04-22 15:53:00,
2013-04-22 10:00:00,23.0,20.0,30.40,WNW,294,5.0,-999.0,89,-99.99,,,-99.99,491.200012,,2013-04-22 16:00:00,
2013-04-22 10:52:00,23.0,20.0,30.40,WNW,294,5.0,-999.0,89,-99.99,,,-99.99,491.200012,,2013-04-22 16:52:00,
2013-04-22 11:00:00,26.0,19.0,30.41,WNW,284,3.0,-999.0,74,-99.99,,,-99.99,609.000000,,2013-04-22 17:00:00,
2013-04-22 11:52:00,26.0,19.0,30.41,WNW,284,3.0,-999.0,74,-99.99,,,-99.99,609.000000,,2013-04-22 17:52:00,
2013-04-22 12:00:00,30.0,16.0,30.42,NW,315,2.0,-999.0,56,-99.99,,,-99.99,654.700012,,2013-04-22 18:00:00,
2013-04-22 12:52:00,30.0,16.0,30.42,NW,315,2.0,-999.0,56,-99.99,,,-99.99,654.700012,,2013-04-22 18:52:00,
2013-04-22 13:00:00,28.0,16.0,30.41,NNW,342,3.0,-999.0,60,-99.99,,,-99.99,826.000000,,2013-04-22 19:00:00,
2013-04-22 13:52:00,28.0,16.0,30.41,NNW,342,3.0,-999.0,60,-99.99,,,-99.99,826.000000,,2013-04-22 19:52:00,
2013-04-22 14:00:00,27.0,16.0,30.40,NNW,330,4.0,-999.0,64,-99.99,,,-99.99,771.200012,,2013-04-22 20:00:00,
2013-04-22 14:52:00,27.0,16.0,30.40,NNW,330,4.0,-999.0,64,-99.99,,,-99.99,771.200012,,2013-04-22 20:52:00,
2013-04-22 15:00:00,29.0,16.0,30.39,North,358,4.0,-999.0,57,-99.99,,,-99.99,593.400024,,2013-04-22 21:00:00,
2013-04-22 15:53:00,29.0,16.0,30.39,North,358,4.0,-999.0,57,-99.99,,,-99.99,593.400024,,2013-04-22 21:53:00,
2013-04-22 16:00:00,30.0,16.0,30.37,NW,317,4.0,-999.0,54,-99.99,,,-99.99,490.200012,,2013-04-22 22:00:00,
2013-04-22 16:52:00,30.0,16.0,30.37,NW,317,4.0,-999.0,54,-99.99,,,-99.99,490.200012,,2013-04-22 22:52:00,
2013-04-22 17:00:00,30.0,14.0,30.36,NNW,348,5.0,-999.0,52,-99.99,,,-99.99,381.200012,,2013-04-22 23:00:00,
2013-04-22 17:52:00,30.0,14.0,30.36,NNW,348,5.0,-999.0,52,-99.99,,,-99.99,381.200012,,2013-04-22 23:52:00,
2013-04-22 18:00:00,33.0,15.0,30.35,NNW,346,3.0,-999.0,48,-99.99,,,-99.99,239.699997,,2013-04-23 00:00:00,
2013-04-22 18:52:00,33.0,15.0,30.35,NNW,346,3.0,-999.0,48,-99.99,,,-99.99,239.699997,,2013-04-23 00:52:00,
2013-04-22 19:00:00,32.0,14.0,30.35,NNW,328,3.0,-999.0,48,-99.99,,,-99.99,294.299988,,2013-04-23 01:00:00,
2013-04-22 19:52:00,32.0,14.0,30.35,NNW,328,3.0,-999.0,48,-99.99,,,-99.99,294.299988,,2013-04-23 01:52:00,
2013-04-22 20:00:00,29.0,17.0,30.34,SW,222,5.0,-999.0,60,-99.99,,,-99.99,115.599998,,2013-04-23 02:00:00,
2013-04-22 20:52:00,29.0,17.0,30.34,SW,222,5.0,-999.0,60,-99.99,,,-99.99,115.599998,,2013-04-23 02:52:00,
2013-04-22 21:00:00,25.0,18.0,30.35,SW,232,4.0,-999.0,75,-99.99,,,-99.99,3.840000,,2013-04-23 03:00:00,
2013-04-22 21:53:00,25.0,18.0,30.35,SW,232,4.0,-999.0,75,-99.99,,,-99.99,3.840000,,2013-04-23 03:53:00,
2013-04-22 22:00:00,23.0,16.0,30.34,SW,214,4.0,-999.0,77,-99.99,,,-99.99,0.030000,,2013-04-23 04:00:00,
2013-04-22 22:53:00,23.0,16.0,30.34,SW,214,4.0,-999.0,77,-99.99,,,-99.99,0.030000,,2013-04-23 04:53:00,
2013-04-22 23:00:00,20.0,16.0,30.32,SW,218,5.0,-999.0,84,-99.99,,,-99.99,0.000000,,2013-04-23 05:00:00,
2013-04-22 23:52:00,20.0,16.0,30.32,SW,218,5.0,-999.0,84,-99.99,,,-99.99,0.000000,,2013-04-23 05:52:00,